• Join FlightAware (Why Join?)
  • Login
  • US Flag 
01:40AM EDT


 

Airport Tracker/Info


-or-


 

Live Flight TrackerFlight Track Log ✈ AWE3794 ✈ 23-Apr-2013 ✈ KCLE - KPHL

Flight Track Log - Related Links

Times and Time Zones

All times are in EDT time to prevent confusion due to time zone crossing. See the AWE3794 flight status page for this flight to view local times or setup timezone preferences in your user account.

Time Position Orientation Groundspeed Altitude Reporting Facility
EDT Latitude Longitude Course Direction KTS MPH feet Rate Location/Type
09:48AM 41.3919 -81.8783 114° Southeast 178 205 1,800  Level Cleveland Center
09:49AM 41.3397 -81.8747 177° South 199 229 4,000 1,980 Climbing Cleveland Center
09:50AM 41.3008 -81.8047 126° Southeast 274 315 5,800 1,860 Climbing Cleveland Center
09:51AM 41.2404 -81.4972 124° Southeast  Level FlightAware Approximate
09:51AM 41.2808 -81.7436 114° Southeast 292 336 7,000  Level Cleveland Center
09:51AM 41.2686 -81.7047 113° Southeast 293 337 8,200 2,580 Climbing Cleveland Center
09:52AM 41.1830 -81.3827 124° Southeast  Level FlightAware Approximate
09:52AM 41.2544 -81.6631 114° Southeast 288 331 9,600  Level Cleveland Center
09:53AM 41.1270 -81.2674 118° Southeast  Level FlightAware Approximate
09:53AM 41.2242 -81.5631 112° Southeast 297 342 11,600  Level Cleveland Center
09:54AM 41.0814 -81.1443 114° Southeast  Level FlightAware Approximate
09:54AM 41.1875 -81.4494 113° Southeast 309 356 13,100  Level Cleveland Center
09:55AM 41.1406 -81.3136 115° Southeast 344 396 15,300 2,100 Climbing Cleveland Center
09:56AM 41.1017 -81.1894 113° Southeast 364 419 17,300 1,740 Climbing Cleveland Center
09:57AM 41.0667 -81.0594 110° East 369 425 18,800 1,440 Climbing Cleveland Center
09:58AM 41.0339 -80.9381 110° East 380 437 20,200 1,380 Climbing Cleveland Center
09:59AM 40.9967 -80.8006 110° East 385 443 21,600 1,200 Climbing Cleveland Center
10:00AM 40.9553 -80.6600 111° Southeast 397 457 22,600 900 Climbing Cleveland Center
10:01AM 40.9136 -80.5172 111° Southeast 402 463 23,500 900 Climbing Cleveland Center
10:02AM 40.8694 -80.3661 111° Southeast 415 478 24,400 660 Climbing Cleveland Center
10:03AM 40.8169 -80.1989 112° Southeast 434 499 24,900 300 Climbing Cleveland Center
10:04AM 40.7642 -80.0486 115° Southeast 440 506 25,000  Climbing Cleveland Center
10:05AM 40.7156 -79.9119 115° Southeast 446 513 25,000  Level Cleveland Center
10:06AM 40.6625 -79.7564 114° Southeast 451 519 25,000  Level Cleveland Center
10:07AM 40.6175 -79.6011 111° Southeast 456 525 25,000  Level Cleveland Center
10:08AM 40.5889 -79.4375 103° East 456 525 25,000  Level Cleveland Center
10:09AM 40.5536 -79.2550 104° East 456 525 25,000  Level Cleveland Center
10:10AM 40.5244 -79.0889 103° East 456 525 25,000  Level Cleveland Center
10:11AM 40.4931 -78.9286 104° East 456 525 25,000  Level Cleveland Center
10:12AM 40.4656 -78.7792 104° East 461 531 25,000  Level Cleveland Center
10:13AM 40.4358 -78.6164 103° East 461 531 25,000  Level Cleveland Center
10:14AM 40.3889 -78.3556 103° East 459 528 25,000  Level New York Center
10:15AM 40.3553 -78.1964 105° East 459 528 25,000  Level New York Center
10:16AM 40.3256 -78.0353 104° East 459 528 25,000  Level New York Center
10:17AM 40.3106 -77.8703 97° East 459 528 25,000 -600 Level New York Center
10:18AM 40.3100 -77.7069 90° East 454 522 23,900 -1,200 Descending New York Center
10:19AM 40.3086 -77.5514 91° East 444 511 22,600 -1,380 Descending New York Center
10:20AM 40.3069 -77.3961 91° East 439 505 21,200 -1,560 Descending New York Center
10:21AM 40.3017 -77.2294 92° East 426 490 19,600 -1,440 Descending New York Center
10:22AM 40.3036 -77.1128 89° East 409 471 18,400 -840 Descending New York Center
10:23AM 40.2744 -76.9575 104° East 403 464 18,000 -360 Descending New York Center
10:24AM 40.2422 -76.8158 107° East 403 464 17,700 -840 Descending New York Center
10:25AM 40.2117 -76.6747 106° East 411 473 16,400 -1,500 Descending New York Center
10:26AM 40.1772 -76.5303 107° East 393 452 14,800 -1,500 Descending New York Center
10:27AM 40.1458 -76.4003 107° East 382 440 13,400 -1,380 Descending New York Center
10:28AM 40.1314 -76.3397 107° East 377 434 12,800 -1,440 Descending FAA TRACON SMA TRACON (SMA)
10:28AM 40.1225 -76.3008 107° East 377 434 12,300 -1,500 Descending FAA TRACON SMA TRACON (SMA)
10:28AM 40.1183 -76.2486 96° East 377 434 11,800 -1,380 Descending FAA TRACON SMA TRACON (SMA)
10:29AM 40.1142 -76.2064 97° East 370 426 11,400 -1,200 Descending FAA TRACON SMA TRACON (SMA)
10:29AM 40.1119 -76.1661 94° East 359 413 11,000 -1,200 Descending FAA TRACON SMA TRACON (SMA)
10:29AM 40.1086 -76.1197 95° East 332 382 10,600 -1,080 Descending FAA TRACON SMA TRACON (SMA)
10:30AM 40.1058 -76.0856 96° East 314 361 10,300 -900 Descending FAA TRACON SMA TRACON (SMA)
10:30AM 40.1039 -76.0528 94° East 293 337 10,000 -1,080 Descending FAA TRACON SMA TRACON (SMA)
10:30AM 40.1011 -76.0158 96° East 280 322 9,600 -1,080 Descending FAA TRACON SMA TRACON (SMA)
10:31AM 40.0997 -75.9803 93° East 281 323 9,300 -900 Descending FAA TRACON SMA TRACON (SMA)
10:31AM 40.0964 -75.9511 98° East 283 326 9,000 -1,080 Descending FAA TRACON SMA TRACON (SMA)
10:32AM 40.0942 -75.9108 94° East 287 330 8,600 -1,080 Descending FAA TRACON SMA TRACON (SMA)
10:32AM 40.0917 -75.8783 96° East 289 333 8,300 -960 Descending FAA TRACON SMA TRACON (SMA)
10:32AM 40.0900 -75.8464 94° East 291 335 8,000 -480 Descending FAA TRACON SMA TRACON (SMA)
10:32AM 40.0861 -75.8050 97° East 290 334 8,000  Level FAA TRACON SMA TRACON (SMA)
10:33AM 40.0839 -75.7744 95° East 286 329 8,000  Level FAA TRACON SMA TRACON (SMA)
10:33AM 40.0819 -75.7428 95° East 284 327 8,000  Level FAA TRACON SMA TRACON (SMA)
10:33AM 40.0800 -75.7114 95° East 282 325 8,000  Level FAA TRACON SMA TRACON (SMA)
10:34AM 40.0783 -75.6725 93° East 281 323 8,000 -300 Level FAA TRACON SMA TRACON (SMA)
10:34AM 40.0767 -75.6433 94° East 281 323 7,800 -900 Descending FAA TRACON SMA TRACON (SMA)
10:35AM 40.0753 -75.6019 92° East 280 322 7,400 -1,020 Descending FAA TRACON SMA TRACON (SMA)
10:35AM 40.0739 -75.5711 93° East 277 319 7,100 -1,020 Descending FAA TRACON SMA TRACON (SMA)
10:35AM 40.0719 -75.5333 94° East 275 316 6,700 -1,140 Descending FAA TRACON SMA TRACON (SMA)
10:35AM 40.0706 -75.5103 94° East 273 314 6,400 -1,020 Descending FAA TRACON SMA TRACON (SMA)
10:36AM 40.0692 -75.4731 93° East 271 312 6,100 -420 Descending FAA TRACON SMA TRACON (SMA)
10:36AM 40.0475 -75.4200 118° Southeast 274 315 6,000 -120 Descending FAA TRACON SMA TRACON (SMA)
10:37AM 40.0192 -75.4067 160° South 286 329 6,000  Level FAA TRACON SMA TRACON (SMA)
10:37AM 39.9958 -75.3994 167° South 282 325 6,000  Level FAA TRACON SMA TRACON (SMA)
10:38AM 39.9672 -75.3919 169° South 282 325 6,000  Level FAA TRACON SMA TRACON (SMA)
10:38AM 39.9450 -75.4022 200° South 271 312 6,000  Level FAA TRACON SMA TRACON (SMA)
10:38AM 39.9294 -75.4203 222° Southwest 235 270 6,000  Level FAA TRACON SMA TRACON (SMA)
10:38AM 39.9222 -75.4428 247° West 215 247 6,000  Level FAA TRACON SMA TRACON (SMA)
10:39AM 39.9156 -75.4697 252° West 204 235 6,000  Level FAA TRACON SMA TRACON (SMA)
10:39AM 39.9106 -75.4906 253° West 199 229 6,000  Level FAA TRACON SMA TRACON (SMA)
10:40AM 39.9047 -75.5153 253° West 195 224 6,000  Level FAA TRACON SMA TRACON (SMA)
10:40AM 39.9000 -75.5364 254° West 191 220 6,000 -480 Level FAA TRACON SMA TRACON (SMA)
10:40AM 39.8958 -75.5569 255° West 190 219 5,700 -960 Descending FAA TRACON SMA TRACON (SMA)
10:40AM 39.8917 -75.5767 255° West 188 216 5,400 -1,080 Descending FAA TRACON SMA TRACON (SMA)
10:41AM 39.8869 -75.6014 256° West 187 215 5,000 -1,080 Descending FAA TRACON SMA TRACON (SMA)
10:41AM 39.8825 -75.6219 254° West 187 215 4,700 -900 Descending FAA TRACON SMA TRACON (SMA)
10:41AM 39.8789 -75.6428 257° West 190 219 4,400 -900 Descending FAA TRACON SMA TRACON (SMA)
10:42AM 39.8672 -75.6675 238° Southwest 210 242 4,100 -480 Descending FAA TRACON SMA TRACON (SMA)
10:42AM 39.8514 -75.6708 189° South 183 211 4,100 -180 Level FAA TRACON SMA TRACON (SMA)
10:42AM 39.8317 -75.6656 168° South 188 216 4,000 -180 Descending FAA TRACON SMA TRACON (SMA)
10:43AM 39.8231 -75.6500 126° Southeast 171 197 4,000  Level FAA TRACON SMA TRACON (SMA)
10:43AM 39.8206 -75.6306 99° East 180 207 4,000 -600 Level FAA TRACON SMA TRACON (SMA)
10:43AM 39.8181 -75.6053 97° East 180 207 3,600 -1,080 Descending FAA TRACON SMA TRACON (SMA)
10:44AM 39.8158 -75.5856 98° East 179 206 3,300 -900 Descending FAA TRACON SMA TRACON (SMA)
10:44AM 39.8139 -75.5628 96° East 179 206 3,000 -480 Descending FAA TRACON SMA TRACON (SMA)
10:44AM 39.8119 -75.5439 98° East 176 203 3,000 -180 Level FAA TRACON SMA TRACON (SMA)
10:45AM 39.8133 -75.5233 85° East 170 196 2,900 -780 Descending FAA TRACON SMA TRACON (SMA)
10:45AM 39.8142 -75.5028 87° East 175 201 2,500 -900 Descending FAA TRACON SMA TRACON (SMA)
10:46AM 39.8228 -75.4606 75° East 174 200 2,000 -540 Descending FAA TRACON SMA TRACON (SMA)
10:46AM 39.8272 -75.4431 72° East 168 193 2,000  Level FAA TRACON SMA TRACON (SMA)
10:46AM 39.8319 -75.4219 74° East 167 192 2,000  Level FAA TRACON SMA TRACON (SMA)